Aeroporto :
LOGIN :

Iscrizione | Disclaimer

   EN    FR    IT 

 










Sommario :    VFR   VFR Marginale   IFR   IFR Intensivo   IFR Molto Intensivo
Visibilità : 
Base nubi : 
>= 8 km
>= 3000ft
5 / 8 km
1000 / 3000 ft
1500m / 5 km
500 / 1000 ft
800 / 1500m
200 / 500 ft
< 800m
< 200 ft
Simboli :   Temporali  Nebbia  Neve Forte  Precipitazioni Forti  Vento > 20 kt
SIGMETs :   Varie  Temporali  Ghiacco  Turbolenza  Onda orograficha  Ceneri Vulcaniche






- Altitudine del aeroporto : 978 ft
- Codice IATA : LNZ


LOWL - Linz

ULTIMO METAR :
  • 221020Z VRB02KT 4500 BR SCT003 BKN005 13/12 Q1024 BECMG 5000 BKN006

METARs OBSOLETI :
  • 220950Z VRB02KT 2400 BR FEW001 BKN003 12/12 Q1024 BECMG 4000 BKN005
  • 220920Z VRB02KT 2300 R26/P1500U BR FEW001 BKN002 12/12 Q1024 BECMG 3000 BKN004
  • 220850Z VRB01KT 0500 R26/0650N FG FEW001 BKN002 11/11 Q1024 TEMPO 1500 BR BKN004
  • 220820Z VRB01KT 0600 R26/0800U FG FEW001 BKN002 11/11 Q1024 TEMPO 1500 BR BKN004
  • 220750Z VRB01KT 0650 R26/0700N BCFG SCT001 BKN002 11/11 Q1024 TEMPO 1500 BR BKN004

TAF AMD TAF LOWL
Valido dal 22 a 09 ore il 23 a 06 ore UTC


220906Z 2209/2306 VRB02KT 1500 BR BKN006 TX15/2214Z TN10/2306Z
TEMPO 2209/2210 0400 BKN002
BECMG 2210/2213 8000 NSW FEW004
BECMG 2218/2220 3000 BR SCT003
BECMG 2220/2223 0500 FG BKN005
TEMPO 2300/2306 0100 VV000



MetMap, La meteo Aeronautica in un colpo d'occhio ! - Copyright ORBIFLY Dicembre 2007 - Disclaimer

ORBIFLY MET'MAP TEAM :

Programmazione e sviluppo : Alexandra Zaïnal
Concezione e sviluppo : Baudouin d'Aumeries
Co-Programmazione e sviluppo : Marc-Olivier Méhu
Supporto tecnico e logistico : Manuel Goepfert
Aiuto per la traduzione : Arnaldo La Scala

Contatto : metmap@orbifly.com




FONTI E CREDITI :

   NOAA